Time;durP1;ratioP1;P1;durP2;ratioP2;P2;SDS_P1;SDS_P2;PMS_P1;PMS_P2;Temp;Humidity;BMP_temperature;BMP_pressure;BME280_temperature;BME280_humidity;BME280_pressure;Samples;Min_cycle;Max_cycle;Signal;HPM_P1;HPM_P2
2021/05/17 00:01:05;;;;;;;0.55;0.25;;;;;17.10;99852.00;;;;5021933;28;20205;-75
2021/05/17 00:03:51;;;;;;;0.60;0.22;;;;;17.20;99849.00;;;;5010809;28;20213;-76
2021/05/17 00:06:37;;;;;;;1.05;0.20;;;;;17.20;99843.00;;;;5009563;28;20970;-76
2021/05/17 00:09:23;;;;;;;0.15;0.10;;;;;17.00;99843.00;;;;5010562;28;20737;-75
2021/05/17 00:12:09;;;;;;;0.20;0.20;;;;;17.00;99846.00;;;;5025458;28;20201;-75
2021/05/17 00:14:55;;;;;;;0.10;0.10;;;;;17.00;99852.00;;;;5024133;28;20648;-76
2021/05/17 00:23:49;;;;;;;0.35;0.10;;;;;17.10;99839.00;;;;5010630;28;20697;-76
2021/05/17 00:26:16;;;;;;;0.20;0.10;;;;;17.10;99835.00;;;;5019980;28;20193;-75
2021/05/17 00:29:02;;;;;;;0.30;0.17;;;;;17.00;99836.00;;;;5015230;28;20642;-76
2021/05/17 00:31:48;;;;;;;0.60;0.22;;;;;17.00;99837.00;;;;5016679;28;20200;-76
2021/05/17 00:34:34;;;;;;;0.20;0.10;;;;;17.10;99840.00;;;;5009683;28;20251;-75
2021/05/17 00:37:20;;;;;;;0.70;0.20;;;;;17.10;99837.00;;;;5024101;28;20201;-76
2021/05/17 00:42:50;;;;;;;0.25;0.10;;;;;17.10;99843.00;;;;5016130;28;20605;-75
2021/05/17 00:48:23;;;;;;;0.20;0.20;;;;;17.10;99835.00;;;;5011632;28;20204;-75
2021/05/17 00:50:50;;;;;;;0.52;0.20;;;;;17.10;99836.00;;;;5026673;28;20207;-75
2021/05/17 00:56:41;;;;;;;0.30;0.20;;;;;16.90;99827.00;;;;5024953;28;20284;-76
2021/05/17 00:59:08;;;;;;;0.15;0.10;;;;;17.10;99828.00;;;;5027860;28;20224;-76
2021/05/17 01:07:07;;;;;;;0.17;0.10;;;;;17.00;99828.00;;;;5018645;28;20343;-75
2021/05/17 01:09:37;;;;;;;0.50;0.40;;;;;17.00;99824.00;;;;5009253;28;20572;-75
2021/05/17 01:17:54;;;;;;;0.77;0.32;;;;;17.00;99823.00;;;;5017645;28;20244;-76
2021/05/17 01:20:40;;;;;;;0.70;0.32;;;;;16.90;99824.00;;;;5021039;28;20228;-75
2021/05/17 01:23:44;;;;;;;1.50;0.47;;;;;16.80;99826.00;;;;5016281;28;20431;-76
2021/05/17 01:26:12;;;;;;;0.52;0.30;;;;;16.90;99817.00;;;;5022962;28;20239;-75
2021/05/17 01:28:41;;;;;;;1.05;0.50;;;;;16.90;99817.00;;;;5027759;28;20254;-76
2021/05/17 01:40:59;;;;;;;1.13;0.60;;;;;16.90;99822.00;;;;5025392;28;20211;-76
2021/05/17 01:43:45;;;;;;;1.15;0.52;;;;;16.90;99818.00;;;;5022417;28;20193;-76
2021/05/17 01:49:00;;;;;;;1.05;0.70;;;;;16.90;99824.00;;;;5018940;28;20208;-76
2021/05/17 01:57:20;;;;;;;1.88;0.77;;;;;16.90;99824.00;;;;5015273;28;20328;-76
2021/05/17 02:00:06;;;;;;;1.30;0.68;;;;;16.80;99825.00;;;;5022680;28;20227;-76
2021/05/17 02:02:52;;;;;;;1.10;0.70;;;;;16.90;99821.00;;;;5018033;28;20208;-75
2021/05/17 02:05:19;;;;;;;1.30;0.90;;;;;16.90;99819.00;;;;5016451;28;20199;-75
2021/05/17 02:08:09;;;;;;;1.33;0.90;;;;;16.80;99817.00;;;;5023362;28;20867;-76
2021/05/17 02:10:35;;;;;;;1.65;0.95;;;;;16.90;99817.00;;;;5025391;28;20208;-76
2021/05/17 02:13:22;;;;;;;1.02;0.90;;;;;16.80;99823.00;;;;5024523;28;20200;-77
2021/05/17 02:18:54;;;;;;;1.38;1.20;;;;;16.90;99823.00;;;;5012931;28;20223;-76
2021/05/17 02:21:40;;;;;;;1.60;0.98;;;;;16.90;99824.00;;;;5016332;28;20208;-76
2021/05/17 02:26:56;;;;;;;1.00;0.90;;;;;17.00;99825.00;;;;5027413;28;20203;-76
2021/05/17 02:29:24;;;;;;;1.42;1.00;;;;;17.00;99826.00;;;;5023851;28;20205;-75
2021/05/17 02:34:55;;;;;;;1.80;1.20;;;;;16.90;99822.00;;;;5029949;28;20207;-76
2021/05/17 02:37:41;;;;;;;1.63;1.10;;;;;17.00;99827.00;;;;5025511;28;20204;-76
2021/05/17 02:40:09;;;;;;;2.58;1.30;;;;;17.00;99828.00;;;;5026157;28;20216;-76
2021/05/17 02:51:13;;;;;;;1.73;1.40;;;;;17.00;99825.00;;;;5012009;28;20677;-76
2021/05/17 02:54:19;;;;;;;1.33;1.23;;;;;16.90;99819.00;;;;5022519;28;20200;-76
2021/05/17 02:57:08;;;;;;;1.50;1.40;;;;;16.80;99826.00;;;;5030248;28;20215;-76
2021/05/17 03:06:04;;;;;;;1.67;1.23;;;;;16.90;99826.00;;;;5019767;28;20220;-76
2021/05/17 03:11:21;;;;;;;2.40;1.50;;;;;16.90;99827.00;;;;5028029;28;20211;-76
2021/05/17 03:14:08;;;;;;;1.63;1.30;;;;;17.00;99824.00;;;;5027977;28;20204;-75
2021/05/17 03:16:37;;;;;;;1.35;1.20;;;;;17.00;99825.00;;;;5030071;28;20204;-77
2021/05/17 03:19:24;;;;;;;3.95;1.90;;;;;17.00;99822.00;;;;5016597;28;20224;-76
2021/05/17 03:22:09;;;;;;;1.58;1.35;;;;;16.90;99821.00;;;;5018523;28;20200;-76
2021/05/17 03:24:38;;;;;;;2.55;1.50;;;;;17.00;99822.00;;;;5011113;28;20193;-75
2021/05/17 03:27:19;;;;;;;2.05;1.40;;;;;16.90;99826.00;;;;5015327;28;21153;-75
2021/05/17 03:29:46;;;;;;;1.90;1.25;;;;;17.00;99822.00;;;;5025875;28;20281;-76
2021/05/17 03:37:44;;;;;;;2.55;1.35;;;;;17.00;99823.00;;;;5018063;28;20570;-76
2021/05/17 03:40:13;;;;;;;2.28;1.40;;;;;17.00;99824.00;;;;5024855;28;20221;-75
2021/05/17 03:42:40;;;;;;;1.88;1.30;;;;;17.00;99820.00;;;;5022819;28;20255;-75
2021/05/17 03:45:25;;;;;;;1.58;1.25;;;;;16.90;99828.00;;;;5013988;28;20225;-75
2021/05/17 03:48:10;;;;;;;1.27;1.17;;;;;16.90;99833.00;;;;5012349;28;20192;-76
2021/05/17 03:50:56;;;;;;;1.48;1.35;;;;;16.90;99826.00;;;;5010274;28;20753;-75
2021/05/17 03:53:23;;;;;;;1.55;1.20;;;;;17.00;99826.00;;;;5018256;28;20211;-75
2021/05/17 03:55:50;;;;;;;1.50;1.17;;;;;17.00;99825.00;;;;5023087;28;20217;-76
2021/05/17 03:58:16;;;;;;;1.50;1.05;;;;;17.00;99827.00;;;;5021089;28;20247;-76
2021/05/17 04:01:20;;;;;;;2.90;0.98;;;;;16.90;99826.00;;;;5025425;28;20220;-75
2021/05/17 04:04:27;;;;;;;2.13;1.30;;;;;16.90;99827.00;;;;5022265;28;20192;-77
2021/05/17 04:16:06;;;;;;;2.30;1.33;;;;;17.00;99832.00;;;;5021212;28;20206;-75
2021/05/17 04:18:32;;;;;;;1.27;1.02;;;;;17.00;99836.00;;;;5013219;28;20197;-76
2021/05/17 04:21:18;;;;;;;1.67;1.27;;;;;16.90;99839.00;;;;5028189;28;20231;-75
2021/05/17 04:23:45;;;;;;;1.70;0.93;;;;;17.00;99841.00;;;;5027571;28;20216;-76
2021/05/17 04:34:45;;;;;;;1.20;1.00;;;;;17.10;99838.00;;;;5010186;28;20228;-75
2021/05/17 04:37:12;;;;;;;1.98;1.27;;;;;17.10;99838.00;;;;5009011;28;20193;-75
2021/05/17 04:42:24;;;;;;;1.48;1.00;;;;;17.10;99841.00;;;;5011641;28;20572;-76
2021/05/17 04:45:10;;;;;;;3.30;1.45;;;;;17.00;99833.00;;;;5029988;28;20244;-77
2021/05/17 04:47:55;;;;;;;2.97;1.85;;;;;17.10;99835.00;;;;5022493;28;20204;-76
2021/05/17 04:50:23;;;;;;;6.68;1.75;;;;;17.10;99835.00;;;;5020943;28;20200;-76
2021/05/17 04:53:08;;;;;;;4.10;1.90;;;;;17.00;99840.00;;;;5017646;28;20650;-76
2021/05/17 05:01:24;;;;;;;3.15;1.65;;;;;17.10;99840.00;;;;5019849;28;20234;-76
2021/05/17 05:03:51;;;;;;;2.95;1.70;;;;;17.10;99843.00;;;;5017380;28;20601;-76
2021/05/17 05:06:17;;;;;;;3.60;1.67;;;;;17.10;99843.00;;;;5008939;28;20200;-77
2021/05/17 05:08:44;;;;;;;3.35;1.58;;;;;17.10;99843.00;;;;5019120;28;20674;-76
2021/05/17 05:13:56;;;;;;;2.40;1.40;;;;;17.10;99851.00;;;;5017594;28;20203;-76
2021/05/17 05:16:42;;;;;;;2.00;1.33;;;;;17.00;99853.00;;;;5014113;28;20663;-76
2021/05/17 05:19:27;;;;;;;4.03;1.63;;;;;17.00;99853.00;;;;5017340;28;20278;-76
2021/05/17 05:21:54;;;;;;;2.90;1.73;;;;;17.20;99841.00;;;;5020813;28;20211;-75
2021/05/17 05:24:21;;;;;;;3.38;1.77;;;;;17.20;99844.00;;;;5018632;28;20249;-76
2021/05/17 05:27:13;;;;;;;4.65;1.67;;;;;17.10;99849.00;;;;5016770;28;20196;-76
2021/05/17 05:32:49;;;;;;;3.15;1.33;;;;;17.20;99843.00;;;;5021255;28;20203;-76
2021/05/17 05:38:38;;;;;;;2.80;1.45;;;;;17.30;99845.00;;;;5016684;28;20230;-75
2021/05/17 05:41:24;;;;;;;2.20;1.08;;;;;17.30;99849.00;;;;5008532;28;21253;-76
2021/05/17 05:46:54;;;;;;;2.63;1.25;;;;;17.50;99849.00;;;;5021466;28;20450;-76
2021/05/17 05:49:40;;;;;;;2.80;1.33;;;;;17.40;99847.00;;;;5023731;28;20196;-76
2021/05/17 05:52:07;;;;;;;1.73;1.27;;;;;17.60;99844.00;;;;5022787;28;20204;-77
2021/05/17 05:54:34;;;;;;;2.53;1.45;;;;;17.60;99855.00;;;;5014985;28;20227;-77
2021/05/17 05:57:19;;;;;;;2.47;1.13;;;;;17.60;99849.00;;;;5028818;28;20295;-77
2021/05/17 05:59:47;;;;;;;2.13;1.52;;;;;17.60;99844.00;;;;5026541;28;20216;-77
2021/05/17 06:05:17;;;;;;;1.30;1.13;;;;;17.60;99852.00;;;;5008709;28;20662;-76
2021/05/17 06:07:44;;;;;;;1.83;1.40;;;;;17.60;99849.00;;;;5010961;28;20609;-76
2021/05/17 06:13:16;;;;;;;2.25;1.45;;;;;17.60;99860.00;;;;5010261;28;20262;-81
2021/05/17 06:15:44;;;;;;;2.47;1.52;;;;;17.60;99856.00;;;;5008034;28;20207;-81
2021/05/17 06:18:30;;;;;;;5.10;1.85;;;;;17.50;99856.00;;;;5013717;28;20227;-82
2021/05/17 06:23:43;;;;;;;3.05;1.60;;;;;17.60;99859.00;;;;5028015;28;20300;-80
2021/05/17 06:29:14;;;;;;;2.00;0.93;;;;;17.60;99867.00;;;;5009329;28;20216;-79
2021/05/17 06:34:49;;;;;;;3.17;1.20;;;;;17.50;99861.00;;;;5011564;28;20207;-79
2021/05/17 06:37:35;;;;;;;1.73;1.10;;;;;17.40;99857.00;;;;5028019;28;20193;-78
2021/05/17 06:42:48;;;;;;;2.65;1.30;;;;;17.50;99865.00;;;;5024748;28;20211;-79
2021/05/17 06:45:15;;;;;;;2.05;1.35;;;;;17.50;99866.00;;;;5021149;28;20624;-79
2021/05/17 06:53:33;;;;;;;2.92;1.15;;;;;17.50;99867.00;;;;5010931;28;20215;-78
2021/05/17 06:56:02;;;;;;;2.03;1.45;;;;;17.50;99875.00;;;;5017279;28;20695;-78
2021/05/17 06:58:54;;;;;;;1.45;1.10;;;;;17.40;99874.00;;;;5008876;28;20220;-78
2021/05/17 07:01:22;;;;;;;1.85;1.17;;;;;17.50;99879.00;;;;5014228;28;20211;-78
2021/05/17 07:06:58;;;;;;;2.53;1.08;;;;;17.60;99877.00;;;;5014679;28;20204;-78
2021/05/17 07:12:29;;;;;;;1.40;1.05;;;;;17.60;99872.00;;;;5013091;28;20211;-79
2021/05/17 07:15:14;;;;;;;1.60;1.15;;;;;17.50;99881.00;;;;5022084;28;20208;-79
2021/05/17 07:18:00;;;;;;;1.73;1.25;;;;;17.60;99880.00;;;;5021710;28;20207;-79
2021/05/17 07:23:41;;;;;;;2.05;1.02;;;;;17.80;99884.00;;;;5021367;28;20270;-80
2021/05/17 07:29:15;;;;;;;1.67;1.15;;;;;17.80;99888.00;;;;5023336;28;20250;-79
2021/05/17 07:31:42;;;;;;;2.35;1.20;;;;;17.90;99889.00;;;;5022213;28;20262;-79
2021/05/17 07:34:09;;;;;;;1.48;1.10;;;;;17.90;99892.00;;;;5015465;28;20197;-79
2021/05/17 07:36:55;;;;;;;1.50;1.13;;;;;17.90;99899.00;;;;5018654;28;20205;-80
2021/05/17 07:39:22;;;;;;;2.55;1.15;;;;;18.00;99899.00;;;;5020779;28;20687;-79
2021/05/17 07:47:56;;;;;;;2.78;1.45;;;;;18.10;99899.00;;;;5021210;28;20582;-80
2021/05/17 07:50:42;;;;;;;2.03;1.40;;;;;18.00;99900.00;;;;5020940;28;20205;-79
2021/05/17 07:53:11;;;;;;;1.77;1.35;;;;;18.10;99902.00;;;;5015899;28;20208;-79
2021/05/17 07:55:38;;;;;;;1.67;1.30;;;;;18.20;99906.00;;;;5026671;28;20208;-79
2021/05/17 07:58:23;;;;;;;2.20;1.30;;;;;18.20;99906.00;;;;5021471;28;20208;-78
2021/05/17 08:00:51;;;;;;;1.20;1.10;;;;;18.20;99898.00;;;;5018475;28;20224;-79
2021/05/17 08:03:18;;;;;;;2.10;1.10;;;;;18.20;99908.00;;;;5024828;28;20192;-78
2021/05/17 08:05:44;;;;;;;1.40;1.20;;;;;18.30;99910.00;;;;5017298;28;20610;-78
2021/05/17 08:08:13;;;;;;;1.38;1.27;;;;;18.30;99906.00;;;;5023318;28;20251;-79
2021/05/17 08:14:02;;;;;;;1.23;1.10;;;;;18.30;99913.00;;;;5015712;28;20219;-79
2021/05/17 08:16:30;;;;;;;1.77;1.33;;;;;18.50;99905.00;;;;5018970;28;20211;-79
2021/05/17 08:18:57;;;;;;;1.92;1.08;;;;;18.50;99912.00;;;;5020251;28;20283;-79
2021/05/17 08:21:24;;;;;;;2.30;1.60;;;;;18.60;99916.00;;;;5021981;28;20316;-79
2021/05/17 08:26:55;;;;;;;1.88;1.33;;;;;18.60;99912.00;;;;5017681;28;20211;-79
2021/05/17 08:29:22;;;;;;;2.28;1.48;;;;;18.80;99915.00;;;;5018456;28;21128;-78
2021/05/17 08:31:50;;;;;;;1.67;1.38;;;;;18.80;99918.00;;;;5012125;28;20193;-78
2021/05/17 08:34:18;;;;;;;1.70;1.50;;;;;18.90;99920.00;;;;5017100;28;20203;-78
2021/05/17 08:36:44;;;;;;;3.38;1.35;;;;;18.90;99921.00;;;;5015272;28;20201;-79
2021/05/17 08:39:12;;;;;;;2.80;1.45;;;;;18.90;99924.00;;;;5020334;28;20207;-78
2021/05/17 08:41:58;;;;;;;1.60;1.25;;;;;19.00;99922.00;;;;5020533;28;20330;-79
2021/05/17 08:44:25;;;;;;;5.07;1.33;;;;;19.10;99924.00;;;;5022443;28;20193;-78
2021/05/17 08:53:19;;;;;;;1.30;1.20;;;;;19.50;99926.00;;;;5017400;28;20258;-79
2021/05/17 08:55:46;;;;;;;3.08;2.30;;;;;19.60;99918.00;;;;5020964;28;20610;-79
2021/05/17 09:03:53;;;;;;;2.80;1.40;;;;;20.20;99924.00;;;;5008962;28;20499;-79
2021/05/17 09:09:07;;;;;;;2.30;1.38;;;;;20.70;99928.00;;;;5024232;28;20210;-79
2021/05/17 09:14:20;;;;;;;1.60;1.40;;;;;21.00;99937.00;;;;5016114;28;20211;-79
2021/05/17 09:16:50;;;;;;;3.55;1.90;;;;;21.10;99939.00;;;;5017510;28;20196;-78
2021/05/17 09:22:40;;;;;;;2.88;1.42;;;;;21.00;99944.00;;;;5016526;28;20227;-82
2021/05/17 09:25:25;;;;;;;1.58;1.17;;;;;21.00;99946.00;;;;5017922;28;20199;-81
2021/05/17 09:28:01;;;;;;;1.55;1.23;;;;;21.10;99950.00;;;;5016203;28;20263;-80
2021/05/17 09:30:42;;;;;;;1.50;1.35;;;;;21.20;99953.00;;;;5023949;28;20733;-82
2021/05/17 09:33:14;;;;;;;4.00;1.70;;;;;21.20;99948.00;;;;5021168;28;20207;-81
2021/05/17 09:35:59;;;;;;;2.75;1.67;;;;;21.20;99953.00;;;;5020170;28;20246;-81
2021/05/17 09:38:45;;;;;;;1.98;1.67;;;;;21.40;99949.00;;;;5008908;28;20559;-81
2021/05/17 09:41:30;;;;;;;2.28;2.03;;;;;21.40;99950.00;;;;5008265;28;20702;-81
2021/05/17 09:43:58;;;;;;;2.25;2.08;;;;;21.40;99959.00;;;;5008354;28;20201;-81
2021/05/17 09:46:25;;;;;;;4.10;2.60;;;;;21.40;99954.00;;;;5008858;28;20221;-80
2021/05/17 09:51:55;;;;;;;3.80;2.30;;;;;21.40;99953.00;;;;5008427;28;20354;-78
2021/05/17 10:00:16;;;;;;;3.40;3.03;;;;;21.70;99947.00;;;;5010757;28;20296;-81
2021/05/17 10:03:20;;;;;;;3.00;2.80;;;;;21.70;99952.00;;;;5021824;28;20239;-79
2021/05/17 10:05:48;;;;;;;3.25;2.97;;;;;21.80;99955.00;;;;5023888;28;20208;-81
2021/05/17 10:08:17;;;;;;;3.10;2.80;;;;;21.90;99952.00;;;;5019998;28;20262;-81
2021/05/17 10:11:03;;;;;;;4.72;3.33;;;;;22.00;99952.00;;;;5020899;28;20220;-81
2021/05/17 10:13:34;;;;;;;4.35;3.00;;;;;22.30;99949.00;;;;5013165;28;20231;-81
2021/05/17 10:16:03;;;;;;;5.35;3.72;;;;;22.50;99951.00;;;;5008933;28;20619;-82
2021/05/17 10:18:50;;;;;;;3.42;3.13;;;;;22.70;99955.00;;;;5013589;28;20205;-81
2021/05/17 10:21:21;;;;;;;3.08;2.72;;;;;23.10;99950.00;;;;5007441;28;20224;-81
2021/05/17 10:26:35;;;;;;;2.85;2.65;;;;;23.50;99956.00;;;;5015273;28;20215;-82
2021/05/17 10:29:05;;;;;;;3.25;2.88;;;;;23.60;99955.00;;;;5009412;28;20199;-81
2021/05/17 10:35:09;;;;;;;3.28;2.97;;;;;23.70;99968.00;;;;5010250;28;20259;-82
2021/05/17 10:37:38;;;;;;;2.63;2.33;;;;;23.90;99959.00;;;;5013943;28;20223;-82
2021/05/17 10:42:55;;;;;;;3.60;2.30;;;;;24.10;99979.00;;;;5014192;28;20215;-80
2021/05/17 10:51:32;;;;;;;5.50;2.38;;;;;24.00;99992.00;;;;5015089;28;20227;-83
2021/05/17 10:53:59;;;;;;;2.65;1.52;;;;;24.00;99996.00;;;;5018188;28;20211;-82
2021/05/17 11:02:32;;;;;;;2.67;2.42;;;;;23.60;100006.00;;;;5016685;28;20240;-83
2021/05/17 11:08:07;;;;;;;2.33;2.13;;;;;23.30;100013.00;;;;5011372;28;20604;-82
2021/05/17 11:10:36;;;;;;;3.45;2.97;;;;;23.30;100015.00;;;;5011466;28;20247;-82
2021/05/17 11:13:15;;;;;;;2.83;2.63;;;;;23.10;100016.00;;;;5010623;28;20502;-83
2021/05/17 11:19:16;;;;;;;2.53;2.33;;;;;22.90;100036.00;;;;5012314;28;20331;-82
2021/05/17 11:22:03;;;;;;;2.83;2.22;;;;;22.50;100039.00;;;;5010898;28;20678;-82
2021/05/17 11:27:58;;;;;;;1.75;1.20;;;;;22.00;100058.00;;;;5013257;28;20251;-83
2021/05/17 11:31:02;;;;;;;1.38;1.23;;;;;21.70;100059.00;;;;5010929;28;20208;-80
2021/05/17 11:34:07;;;;;;;2.08;1.30;;;;;21.50;100058.00;;;;5011134;28;20208;-83
2021/05/17 11:36:54;;;;;;;1.60;1.20;;;;;21.40;100063.00;;;;5011142;28;20196;-82
2021/05/17 11:39:24;;;;;;;1.73;1.48;;;;;21.10;100053.00;;;;5011128;28;20284;-83
2021/05/17 11:42:03;;;;;;;1.50;1.20;;;;;20.90;100056.00;;;;5011129;28;20205;-82
2021/05/17 11:44:33;;;;;;;1.92;0.88;;;;;20.80;100056.00;;;;5011276;28;20345;-77
2021/05/17 11:47:02;;;;;;;1.20;1.00;;;;;20.60;100056.00;;;;5013724;28;20256;-77
2021/05/17 11:49:31;;;;;;;1.15;0.88;;;;;20.50;100053.00;;;;5010722;28;20205;-76
2021/05/17 11:52:00;;;;;;;2.33;1.30;;;;;20.40;100060.00;;;;5018830;28;20789;-77
2021/05/17 11:54:38;;;;;;;1.20;0.98;;;;;20.30;100065.00;;;;5010307;28;20209;-78
2021/05/17 12:03:18;;;;;;;1.33;0.90;;;;;20.30;100080.00;;;;5014676;28;20255;-78
2021/05/17 12:05:45;;;;;;;5.78;1.50;;;;;20.30;100087.00;;;;5024307;28;20243;-78
2021/05/17 12:08:11;;;;;;;1.40;1.20;;;;;20.40;100090.00;;;;5012931;28;20200;-78
2021/05/17 12:17:00;;;;;;;2.65;1.08;;;;;20.60;100107.00;;;;5022824;28;20589;-77
2021/05/17 12:19:46;;;;;;;0.85;0.80;;;;;20.80;100107.00;;;;5027121;28;20620;-79
2021/05/17 12:22:16;;;;;;;1.42;1.23;;;;;21.00;100113.00;;;;5026226;28;20205;-77
2021/05/17 12:27:49;;;;;;;1.08;0.75;;;;;21.20;100124.00;;;;5013667;28;20211;-78
2021/05/17 12:36:24;;;;;;;0.93;0.73;;;;;21.70;100134.00;;;;5014050;28;20305;-77
2021/05/17 12:41:40;;;;;;;0.90;0.75;;;;;21.70;100131.00;;;;5014748;28;20230;-77
2021/05/17 12:44:29;;;;;;;1.42;0.88;;;;;21.70;100143.00;;;;5009585;28;20212;-78
2021/05/17 12:47:33;;;;;;;2.17;0.85;;;;;21.80;100147.00;;;;5020326;28;20235;-78
2021/05/17 12:50:00;;;;;;;1.33;0.80;;;;;21.90;100151.00;;;;5012490;28;20258;-78
2021/05/17 12:55:19;;;;;;;1.33;1.17;;;;;22.10;100148.00;;;;5013737;28;20266;-81
2021/05/17 12:58:42;;;;;;;2.00;1.17;;;;;22.10;100150.00;;;;5013897;28;20273;-78
2021/05/17 13:01:11;;;;;;;1.52;1.05;;;;;22.20;100169.00;;;;5017154;28;20224;-77
2021/05/17 13:04:16;;;;;;;2.20;2.00;;;;;22.00;100174.00;;;;5026387;28;20279;-76
2021/05/17 13:07:02;;;;;;;2.85;2.53;;;;;21.90;100195.00;;;;5015179;28;20208;-75
2021/05/17 13:09:53;;;;;;;3.67;2.88;;;;;21.60;100195.00;;;;5018599;28;20205;-76
2021/05/17 13:15:33;;;;;;;4.88;2.80;;;;;21.30;100206.00;;;;5008755;28;20309;-75
2021/05/17 13:21:07;;;;;;;3.88;3.33;;;;;20.90;100211.00;;;;5019589;28;20281;-75
2021/05/17 13:24:15;;;;;;;3.58;2.90;;;;;20.90;100211.00;;;;5023051;28;20216;-75
2021/05/17 13:30:10;;;;;;;3.88;2.55;;;;;20.70;100214.00;;;;5025865;28;20326;-76
2021/05/17 13:35:42;;;;;;;4.35;3.95;;;;;20.90;100222.00;;;;5007578;28;20220;-76
2021/05/17 13:38:27;;;;;;;4.82;3.90;;;;;21.00;100219.00;;;;5009383;28;20231;-76
2021/05/17 13:41:13;;;;;;;3.65;2.97;;;;;20.90;100225.00;;;;5017262;28;20233;-80
2021/05/17 13:43:40;;;;;;;10.07;7.05;;;;;21.10;100219.00;;;;5016530;28;20456;-76
2021/05/17 13:46:26;;;;;;;4.82;4.30;;;;;21.30;100226.00;;;;5024862;28;20231;-76
2021/05/17 13:51:57;;;;;;;4.60;3.33;;;;;21.30;100239.00;;;;5021932;28;20203;-77
2021/05/17 13:54:43;;;;;;;3.22;2.65;;;;;21.40;100241.00;;;;5017627;28;20209;-80
2021/05/17 13:57:10;;;;;;;2.72;2.50;;;;;21.40;100252.00;;;;5008766;28;20208;-81
2021/05/17 13:59:55;;;;;;;6.38;2.88;;;;;21.50;100252.00;;;;5019653;28;20208;-81
2021/05/17 14:02:40;;;;;;;2.88;1.60;;;;;21.40;100260.00;;;;5010477;28;20199;-80
2021/05/17 14:05:08;;;;;;;2.55;1.60;;;;;21.40;100260.00;;;;5014461;28;20200;-80
2021/05/17 14:07:54;;;;;;;1.20;1.10;;;;;21.30;100264.00;;;;5016508;28;20216;-80
2021/05/17 14:13:44;;;;;;;2.78;1.80;;;;;21.30;100269.00;;;;5022313;28;20206;-78
2021/05/17 14:16:29;;;;;;;2.70;1.92;;;;;21.10;100298.00;;;;5018874;28;20275;-79
2021/05/17 14:19:15;;;;;;;1.52;1.42;;;;;21.10;100286.00;;;;5032592;28;20249;-78
2021/05/17 14:21:42;;;;;;;2.53;1.80;;;;;21.20;100292.00;;;;5014301;28;20228;-77
2021/05/17 14:24:28;;;;;;;1.67;1.35;;;;;21.10;100294.00;;;;5026213;28;20220;-78
2021/05/17 14:32:44;;;;;;;1.40;1.30;;;;;21.10;100308.00;;;;5018516;28;20575;-80
2021/05/17 14:35:29;;;;;;;1.52;1.42;;;;;20.90;100309.00;;;;5018612;28;20563;-81
2021/05/17 14:40:42;;;;;;;1.15;0.82;;;;;20.90;100318.00;;;;5017834;28;20347;-78
2021/05/17 14:43:09;;;;;;;2.25;1.20;;;;;20.90;100325.00;;;;5023096;28;20203;-77
2021/05/17 14:48:39;;;;;;;1.58;0.75;;;;;20.80;100346.00;;;;5012034;28;20633;-78
2021/05/17 14:51:25;;;;;;;1.88;0.90;;;;;20.70;100350.00;;;;5016283;28;20248;-78
2021/05/17 14:56:37;;;;;;;2.20;0.90;;;;;21.00;100355.00;;;;5026633;28;20223;-78
2021/05/17 15:01:49;;;;;;;1.23;0.90;;;;;21.80;100363.00;;;;5018272;28;20263;-78
2021/05/17 15:04:16;;;;;;;0.30;0.30;;;;;21.90;100366.00;;;;5017695;28;20438;-80
2021/05/17 15:06:44;;;;;;;1.15;0.47;;;;;22.00;100369.00;;;;5017537;28;20255;-80
2021/05/17 15:09:11;;;;;;;1.70;0.50;;;;;22.00;100371.00;;;;5019851;28;20673;-78
2021/05/17 15:11:57;;;;;;;1.63;0.50;;;;;21.80;100377.00;;;;5017763;28;20208;-79
2021/05/17 15:14:25;;;;;;;1.42;0.60;;;;;21.90;100385.00;;;;5020228;28;20204;-78
2021/05/17 15:20:15;;;;;;;2.17;0.85;;;;;21.70;100391.00;;;;5020862;28;20230;-77
2021/05/17 15:22:42;;;;;;;0.70;0.55;;;;;21.80;100399.00;;;;5019532;28;20641;-79
2021/05/17 15:25:27;;;;;;;0.88;0.57;;;;;21.70;100396.00;;;;5019689;28;20208;-78
2021/05/17 15:28:14;;;;;;;0.73;0.40;;;;;21.80;100406.00;;;;5019603;28;20204;-78
2021/05/17 15:30:41;;;;;;;2.53;0.40;;;;;21.80;100408.00;;;;5017817;28;20251;-78
2021/05/17 15:36:11;;;;;;;0.98;0.70;;;;;21.60;100419.00;;;;5018463;28;20686;-79
2021/05/17 15:38:38;;;;;;;3.30;0.70;;;;;21.90;100428.00;;;;5020777;28;20246;-78
2021/05/17 15:41:23;;;;;;;1.17;0.68;;;;;21.90;100434.00;;;;5019297;28;20346;-79
2021/05/17 15:44:27;;;;;;;1.05;0.50;;;;;21.80;100437.00;;;;5026703;28;20210;-77
2021/05/17 15:46:55;;;;;;;1.95;0.50;;;;;21.90;100435.00;;;;5024121;28;20595;-78
2021/05/17 15:49:22;;;;;;;2.83;0.60;;;;;21.90;100446.00;;;;5018311;28;20758;-78
2021/05/17 15:51:48;;;;;;;1.73;0.60;;;;;22.10;100444.00;;;;5022994;28;20211;-77
2021/05/17 15:54:16;;;;;;;0.40;0.30;;;;;22.50;100450.00;;;;5025597;28;20197;-78
2021/05/17 15:56:42;;;;;;;1.48;0.40;;;;;22.60;100456.00;;;;5021833;28;20239;-77
2021/05/17 16:02:33;;;;;;;1.33;0.90;;;;;22.60;100460.00;;;;5021066;28;20244;-79
2021/05/17 16:05:19;;;;;;;0.63;0.45;;;;;22.40;100462.00;;;;5028863;28;20200;-79
2021/05/17 16:07:46;;;;;;;1.65;0.77;;;;;22.30;100476.00;;;;5016881;28;20209;-79
2021/05/17 16:10:36;;;;;;;2.42;1.00;;;;;22.10;100472.00;;;;5008474;28;20205;-78
2021/05/17 16:13:07;;;;;;;1.98;0.98;;;;;21.90;100493.00;;;;5009699;28;20946;-80
2021/05/17 16:15:59;;;;;;;1.45;0.90;;;;;21.50;100486.00;;;;5009796;28;20205;-78
2021/05/17 16:18:34;;;;;;;0.88;0.43;;;;;21.50;100494.00;;;;5010349;28;20205;-78
2021/05/17 16:21:23;;;;;;;1.48;0.68;;;;;21.30;100480.00;;;;5010461;28;20789;-79
2021/05/17 16:23:51;;;;;;;4.10;1.15;;;;;21.20;100497.00;;;;5017922;28;20220;-78
2021/05/17 16:26:37;;;;;;;1.65;0.85;;;;;21.10;100496.00;;;;5008976;28;20205;-78
2021/05/17 16:29:22;;;;;;;1.00;0.73;;;;;21.00;100498.00;;;;5019866;28;20216;-78
2021/05/17 16:31:50;;;;;;;1.38;0.60;;;;;20.90;100497.00;;;;5019796;28;20192;-79
2021/05/17 16:34:37;;;;;;;0.80;0.63;;;;;20.80;100506.00;;;;5015314;28;20201;-78
2021/05/17 16:37:05;;;;;;;2.15;0.75;;;;;20.80;100509.00;;;;5020754;28;20200;-77
2021/05/17 16:39:31;;;;;;;0.98;0.63;;;;;20.70;100511.00;;;;5027983;28;20262;-78
2021/05/17 16:41:58;;;;;;;5.07;1.10;;;;;20.80;100521.00;;;;5016148;28;20623;-78
2021/05/17 16:44:25;;;;;;;4.20;1.05;;;;;20.70;100519.00;;;;5023122;28;20200;-77
2021/05/17 16:46:52;;;;;;;2.13;1.10;;;;;20.70;100518.00;;;;5015136;28;20224;-78
2021/05/17 16:49:19;;;;;;;2.58;0.98;;;;;20.60;100521.00;;;;5014682;28;20667;-78
2021/05/17 16:52:05;;;;;;;2.75;0.93;;;;;20.40;100523.00;;;;5020698;28;20204;-77
2021/05/17 16:54:32;;;;;;;2.83;1.40;;;;;20.50;100519.00;;;;5013421;28;20683;-77
2021/05/17 16:57:18;;;;;;;3.85;1.00;;;;;20.50;100531.00;;;;5022253;28;20209;-78
2021/05/17 17:00:03;;;;;;;1.25;0.75;;;;;20.50;100536.00;;;;5018858;28;20197;-77
2021/05/17 17:05:34;;;;;;;2.08;0.98;;;;;20.50;100540.00;;;;5020985;28;20215;-77
2021/05/17 17:08:20;;;;;;;1.33;0.60;;;;;20.40;100550.00;;;;5020654;28;20401;-77
2021/05/17 17:14:28;;;;;;;2.05;0.77;;;;;20.40;100550.00;;;;5012812;28;20211;-75
2021/05/17 17:17:13;;;;;;;1.23;0.60;;;;;20.40;100554.00;;;;5014082;28;20206;-77
2021/05/17 17:19:40;;;;;;;1.80;0.80;;;;;20.60;100562.00;;;;5013615;28;20208;-77
2021/05/17 17:25:11;;;;;;;1.45;1.10;;;;;21.10;100565.00;;;;5014713;28;20307;-76
2021/05/17 17:27:38;;;;;;;2.85;1.00;;;;;21.20;100579.00;;;;5009127;28;20212;-77
2021/05/17 17:30:07;;;;;;;3.92;0.82;;;;;21.20;100574.00;;;;5010985;28;20201;-78
2021/05/17 17:32:34;;;;;;;3.40;1.35;;;;;21.20;100576.00;;;;5012379;28;20678;-77
2021/05/17 17:35:19;;;;;;;1.92;0.75;;;;;21.30;100575.00;;;;5010765;28;20207;-82
2021/05/17 17:37:47;;;;;;;5.85;1.30;;;;;21.30;100587.00;;;;5007628;28;20289;-81
2021/05/17 17:40:14;;;;;;;4.18;1.73;;;;;21.30;100591.00;;;;5008418;28;20572;-81
2021/05/17 17:42:59;;;;;;;1.73;1.10;;;;;21.30;100588.00;;;;5007641;28;20694;-81
2021/05/17 17:45:45;;;;;;;3.78;1.33;;;;;21.10;100587.00;;;;5007920;28;20224;-81
2021/05/17 17:48:31;;;;;;;2.65;1.27;;;;;21.10;100595.00;;;;5012097;28;20204;-82
2021/05/17 17:51:16;;;;;;;4.78;1.58;;;;;21.10;100598.00;;;;5017692;28;20208;-82
2021/05/17 17:53:43;;;;;;;3.42;0.85;;;;;21.00;100600.00;;;;5008681;28;20201;-83
2021/05/17 17:56:10;;;;;;;2.72;1.45;;;;;21.00;100612.00;;;;5008121;28;20667;-82
2021/05/17 17:58:37;;;;;;;4.93;1.83;;;;;20.90;100613.00;;;;5009202;28;20216;-82
2021/05/17 18:01:04;;;;;;;6.00;1.30;;;;;20.90;100624.00;;;;5008375;28;20225;-82